Huntleigh, Missouri
Current Conditions -  °F | °C
As of 10:51 PM on Saturday 22 Nov 2014 (Local Time) from KSTL Reporting Station
Light Rain Light Rain  
Wind Chill: 55°   Ceiling: 8500
Heat Index: 55°   Visibility: 8mi
Dew Point: 50°   Wind: 10mph
Humidity: 83%   Direction: 170°S
Pressure: 29.88"   Gusts: NA
Location:  38.6172°N, 90.4443°W
Report Text: KSTL 230451Z 17009KT 8SM -RA FEW060 OVC085 13/10 A2988 RMK AO2 SLP115 P0002 T01280100
Loading
Personal Weather Stations






























Interactive Weather Map New forecast layout! Learn more

10-Day Weather Forecast

Advertisements
Track Severe Weather on mobile